createdAt,value
2018-12-27T00:00:17.910Z,3.50
2018-12-27T00:02:46.338Z,3.40
2018-12-27T00:05:14.814Z,3.40
2018-12-27T00:07:43.261Z,3.30
2018-12-27T00:10:11.678Z,3.20
2018-12-27T00:12:40.106Z,3.10
2018-12-27T00:15:08.531Z,3.10
2018-12-27T00:17:36.943Z,3.10
2018-12-27T00:20:05.359Z,3.20
2018-12-27T00:22:34.673Z,3.20
2018-12-27T00:25:03.090Z,3.30
2018-12-27T00:27:31.507Z,3.30
2018-12-27T00:30:00.279Z,3.40
2018-12-27T00:32:28.981Z,3.30
2018-12-27T00:34:57.579Z,3.30
2018-12-27T00:37:26.149Z,3.30
2018-12-27T00:39:54.732Z,3.30
2018-12-27T00:42:23.533Z,3.30
2018-12-27T00:44:52.119Z,3.30
2018-12-27T00:47:20.689Z,3.20
2018-12-27T00:49:49.300Z,3.30
2018-12-27T00:52:17.869Z,3.40
2018-12-27T00:54:46.452Z,3.50
2018-12-27T00:57:15.026Z,3.40
2018-12-27T00:59:43.606Z,3.40
2018-12-27T01:02:12.190Z,3.40
2018-12-27T01:04:40.793Z,3.50
2018-12-27T01:07:09.374Z,3.50
2018-12-27T01:09:37.986Z,3.40
2018-12-27T01:12:06.554Z,3.30
2018-12-27T01:14:35.137Z,3.20
2018-12-27T01:17:03.727Z,3.20
2018-12-27T01:19:32.307Z,3.10
2018-12-27T01:22:00.887Z,3.00
2018-12-27T01:24:29.496Z,2.90
2018-12-27T01:26:58.078Z,2.80
2018-12-27T01:29:26.649Z,2.80
2018-12-27T01:31:55.245Z,2.70
2018-12-27T01:34:23.858Z,2.60
2018-12-27T01:36:52.421Z,2.60
2018-12-27T01:39:21.002Z,2.60
2018-12-27T01:41:49.566Z,2.60
2018-12-27T01:44:18.169Z,2.60
2018-12-27T01:46:46.733Z,2.50
2018-12-27T01:49:15.326Z,2.50
2018-12-27T01:51:43.902Z,2.40
2018-12-27T01:54:12.507Z,2.40
2018-12-27T01:56:41.074Z,2.50
2018-12-27T01:59:09.657Z,2.50
2018-12-27T02:01:38.236Z,2.50
2018-12-27T02:04:06.818Z,2.50
2018-12-27T02:06:35.406Z,2.50
2018-12-27T02:09:04.441Z,2.50
2018-12-27T02:11:33.027Z,2.50
2018-12-27T02:14:01.597Z,2.50
2018-12-27T02:16:30.169Z,2.50
2018-12-27T02:18:58.761Z,2.50
2018-12-27T02:21:27.389Z,2.60
2018-12-27T02:23:56.015Z,2.70
2018-12-27T02:26:24.597Z,2.80
2018-12-27T02:28:53.178Z,2.70
2018-12-27T02:31:21.758Z,2.90
2018-12-27T02:33:50.354Z,3.00
2018-12-27T02:36:18.932Z,2.90
2018-12-27T02:38:47.517Z,2.90
2018-12-27T02:41:16.095Z,2.90
2018-12-27T02:43:44.668Z,2.80
2018-12-27T02:46:13.247Z,2.70
2018-12-27T02:48:41.841Z,2.60
2018-12-27T02:51:10.411Z,2.60
2018-12-27T02:53:39.004Z,2.60
2018-12-27T02:56:08.586Z,2.50
2018-12-27T02:58:37.168Z,2.50
2018-12-27T03:01:05.860Z,2.40
2018-12-27T03:03:34.430Z,2.40
2018-12-27T03:06:03.034Z,2.50
2018-12-27T03:08:31.590Z,2.40
2018-12-27T03:11:00.181Z,2.40
2018-12-27T03:13:28.754Z,2.50
2018-12-27T03:15:57.349Z,2.50
2018-12-27T03:18:25.945Z,2.60
2018-12-27T03:20:54.523Z,2.60
2018-12-27T03:23:23.093Z,2.80
2018-12-27T03:25:51.682Z,2.70
2018-12-27T03:28:20.249Z,2.70
2018-12-27T03:30:48.865Z,2.80
2018-12-27T03:33:17.443Z,2.90
2018-12-27T03:35:46.047Z,3.00
2018-12-27T03:38:14.614Z,3.10
2018-12-27T03:40:43.455Z,3.10
2018-12-27T03:43:12.024Z,3.00
2018-12-27T03:45:40.603Z,2.90
2018-12-27T03:48:09.177Z,2.80
2018-12-27T03:50:37.751Z,2.90
2018-12-27T03:53:06.352Z,3.00
2018-12-27T03:55:34.929Z,3.00
2018-12-27T03:58:03.526Z,2.90
2018-12-27T04:00:32.092Z,2.90
2018-12-27T04:03:00.703Z,2.80
2018-12-27T04:05:29.288Z,2.70
2018-12-27T04:07:57.884Z,2.70
2018-12-27T04:10:26.457Z,2.60
2018-12-27T04:12:55.051Z,2.60
2018-12-27T04:15:23.462Z,2.50
2018-12-27T04:17:51.985Z,2.40
2018-12-27T04:20:20.399Z,2.30
2018-12-27T04:22:48.848Z,2.20
2018-12-27T04:25:17.353Z,2.20
2018-12-27T04:27:45.809Z,2.10
2018-12-27T04:30:14.208Z,2.20
2018-12-27T04:32:43.658Z,2.40
2018-12-27T04:35:12.611Z,2.60
2018-12-27T04:37:41.035Z,2.50
2018-12-27T04:40:09.463Z,2.40
2018-12-27T04:42:38.050Z,2.30
2018-12-27T04:45:06.478Z,2.20
2018-12-27T04:47:35.127Z,2.10
2018-12-27T04:50:04.307Z,2.10
2018-12-27T04:52:32.717Z,2.00
2018-12-27T04:55:01.158Z,2.00
2018-12-27T04:57:29.586Z,1.90
2018-12-27T04:59:58.024Z,1.80
2018-12-27T05:02:26.455Z,1.70
2018-12-27T05:04:54.868Z,1.60
2018-12-27T05:07:23.305Z,1.50
2018-12-27T05:09:51.750Z,1.40
2018-12-27T05:12:20.188Z,1.30
2018-12-27T05:14:48.681Z,1.30
2018-12-27T05:17:17.115Z,1.20
2018-12-27T05:19:45.521Z,1.10
2018-12-27T05:22:14.094Z,1.00
2018-12-27T05:24:42.539Z,1.00
2018-12-27T05:27:10.994Z,1.00
2018-12-27T05:29:39.412Z,0.90
2018-12-27T05:32:07.831Z,0.70
2018-12-27T05:34:36.266Z,0.60
2018-12-27T05:37:04.687Z,0.60
2018-12-27T05:39:33.128Z,0.60
2018-12-27T05:42:01.542Z,0.60
2018-12-27T05:44:29.980Z,0.60
2018-12-27T05:46:58.397Z,0.60
2018-12-27T05:49:26.849Z,0.40
2018-12-27T05:51:55.266Z,0.30
2018-12-27T05:54:23.695Z,0.30
2018-12-27T05:56:52.125Z,0.30
2018-12-27T05:59:20.557Z,0.30
2018-12-27T06:01:48.975Z,0.40
2018-12-27T06:04:17.412Z,0.30
2018-12-27T06:06:45.839Z,0.30
2018-12-27T06:09:14.490Z,0.40
2018-12-27T06:11:42.910Z,0.30
2018-12-27T06:14:11.335Z,0.10
2018-12-27T06:16:39.754Z,0.00
2018-12-27T06:19:08.162Z,-0.10
2018-12-27T06:21:36.650Z,-0.10
2018-12-27T06:24:05.110Z,-0.10
2018-12-27T06:26:33.552Z,-0.10
2018-12-27T06:29:01.977Z,-0.10
2018-12-27T06:31:30.411Z,-0.10
2018-12-27T06:33:58.842Z,-0.10
2018-12-27T06:36:27.761Z,-0.20
2018-12-27T06:38:56.158Z,-0.10
2018-12-27T06:41:24.612Z,-0.10
2018-12-27T06:43:53.037Z,-0.10
2018-12-27T06:46:21.451Z,-0.10
2018-12-27T06:48:49.908Z,-0.20
2018-12-27T06:51:18.325Z,-0.30
2018-12-27T06:53:46.790Z,-0.30
2018-12-27T06:56:15.246Z,-0.40
2018-12-27T06:58:43.691Z,-0.40
2018-12-27T07:01:12.121Z,-0.40
2018-12-27T07:03:40.583Z,-0.40
2018-12-27T07:06:09.003Z,-0.50
2018-12-27T07:08:37.446Z,-0.60
2018-12-27T07:11:05.871Z,-0.50
2018-12-27T07:13:34.314Z,-0.50
2018-12-27T07:16:02.976Z,-0.50
2018-12-27T07:18:31.442Z,-0.50
2018-12-27T07:20:59.858Z,-0.50
2018-12-27T07:23:28.309Z,-0.40
2018-12-27T07:25:56.734Z,-0.40
2018-12-27T07:28:25.174Z,-0.30
2018-12-27T07:30:53.600Z,-0.30
2018-12-27T07:33:22.032Z,0.00
2018-12-27T07:35:50.461Z,0.20
2018-12-27T07:38:18.943Z,0.20
2018-12-27T07:40:47.383Z,0.30
2018-12-27T07:43:15.801Z,0.30
2018-12-27T07:45:44.245Z,0.30
2018-12-27T07:48:12.658Z,0.20
2018-12-27T07:50:41.091Z,0.20
2018-12-27T07:53:09.540Z,0.20
2018-12-27T07:55:37.947Z,0.20
2018-12-27T07:58:06.483Z,0.20
2018-12-27T08:00:35.001Z,0.40
2018-12-27T08:03:03.415Z,0.60
2018-12-27T08:05:31.837Z,0.70
2018-12-27T08:08:00.254Z,0.60
2018-12-27T08:10:28.688Z,0.50
2018-12-27T08:12:57.096Z,0.60
2018-12-27T08:15:26.088Z,0.60
2018-12-27T08:17:54.502Z,0.80
2018-12-27T08:20:22.941Z,1.00
2018-12-27T08:22:51.354Z,1.00
2018-12-27T08:25:21.430Z,1.10
2018-12-27T08:27:49.939Z,1.10
2018-12-27T08:30:19.281Z,1.10
2018-12-27T08:32:47.678Z,1.20
2018-12-27T08:35:16.109Z,1.30
2018-12-27T08:37:44.537Z,1.50
2018-12-27T08:40:12.971Z,1.50
2018-12-27T08:42:41.414Z,1.60
2018-12-27T08:45:09.826Z,1.70
2018-12-27T08:47:38.245Z,1.90
2018-12-27T08:50:07.709Z,2.20
2018-12-27T08:52:36.130Z,2.30
2018-12-27T08:55:05.287Z,2.40
2018-12-27T08:57:33.738Z,2.50
2018-12-27T09:00:02.204Z,2.50
2018-12-27T09:02:30.611Z,2.60
2018-12-27T09:04:59.067Z,2.50
2018-12-27T09:07:27.479Z,2.50
2018-12-27T09:09:55.939Z,2.60
2018-12-27T09:12:24.408Z,2.70
2018-12-27T09:14:52.839Z,2.80
2018-12-27T09:17:21.271Z,2.90
2018-12-27T09:19:49.718Z,3.00
2018-12-27T09:22:18.141Z,3.10
2018-12-27T09:24:46.616Z,3.10
2018-12-27T09:27:15.025Z,3.10
2018-12-27T09:29:43.477Z,3.20
2018-12-27T09:32:11.886Z,3.30
2018-12-27T09:34:40.341Z,3.40
2018-12-27T09:37:11.455Z,3.40
2018-12-27T09:39:39.884Z,3.60
2018-12-27T09:42:08.293Z,3.70
2018-12-27T09:44:36.804Z,3.80
2018-12-27T09:47:05.229Z,3.90
2018-12-27T09:49:33.674Z,4.00
2018-12-27T09:52:02.402Z,4.10
2018-12-27T09:54:30.886Z,4.20
2018-12-27T09:56:59.305Z,4.30
2018-12-27T09:59:27.736Z,4.40
2018-12-27T10:01:56.191Z,4.50
2018-12-27T10:04:24.629Z,4.70
2018-12-27T10:06:53.071Z,4.80
2018-12-27T10:09:21.472Z,4.90
2018-12-27T10:11:49.913Z,5.00
2018-12-27T10:14:18.328Z,5.10
2018-12-27T10:16:46.759Z,5.10
2018-12-27T10:19:15.219Z,5.10
2018-12-27T10:21:43.626Z,5.10
2018-12-27T10:24:12.179Z,5.10
2018-12-27T10:26:40.608Z,5.10
2018-12-27T10:29:09.060Z,5.10
2018-12-27T10:31:37.462Z,5.10
2018-12-27T10:34:05.915Z,5.10
2018-12-27T10:36:34.363Z,5.10
2018-12-27T10:39:02.914Z,5.10
2018-12-27T10:41:31.357Z,5.10
2018-12-27T10:43:59.838Z,5.20
2018-12-27T10:46:28.317Z,5.20
2018-12-27T10:48:56.741Z,5.20
2018-12-27T10:51:25.201Z,5.30
2018-12-27T10:53:53.634Z,5.40
2018-12-27T10:56:22.070Z,5.30
2018-12-27T10:58:50.501Z,5.30
2018-12-27T11:01:18.926Z,5.50
2018-12-27T11:03:47.428Z,5.70
2018-12-27T11:06:15.851Z,5.70
2018-12-27T11:08:44.296Z,5.70
2018-12-27T11:11:12.734Z,5.70
2018-12-27T11:13:41.157Z,5.80
2018-12-27T11:16:09.602Z,5.90
2018-12-27T11:18:38.024Z,6.00
2018-12-27T11:21:06.482Z,6.00
2018-12-27T11:23:34.937Z,6.10
2018-12-27T11:26:03.440Z,6.20
2018-12-27T11:28:31.855Z,6.20
2018-12-27T11:31:00.355Z,6.30
2018-12-27T11:33:28.768Z,6.40
2018-12-27T11:35:57.232Z,6.60
2018-12-27T11:38:25.638Z,6.60
2018-12-27T11:40:54.075Z,6.70
2018-12-27T11:43:22.501Z,6.80
2018-12-27T11:45:50.999Z,7.00
2018-12-27T11:48:19.485Z,7.10
2018-12-27T11:50:48.151Z,7.20
2018-12-27T11:53:16.583Z,7.30
2018-12-27T11:55:45.006Z,7.40
2018-12-27T11:58:13.442Z,7.50
2018-12-27T12:00:42.077Z,7.60
2018-12-27T12:03:10.566Z,7.70
2018-12-27T12:05:39.015Z,7.80
2018-12-27T12:08:07.465Z,7.70
2018-12-27T12:10:35.901Z,7.70
2018-12-27T12:13:04.354Z,7.80
2018-12-27T12:15:34.680Z,7.90
2018-12-27T12:18:03.130Z,8.00
2018-12-27T12:20:31.537Z,8.10
2018-12-27T12:23:00.053Z,8.20
2018-12-27T12:25:28.473Z,8.30
2018-12-27T12:27:56.907Z,8.20
2018-12-27T12:30:25.322Z,8.10
2018-12-27T12:32:53.793Z,8.00
2018-12-27T12:35:22.271Z,8.00
2018-12-27T12:37:51.128Z,7.90
2018-12-27T12:40:19.642Z,8.00
2018-12-27T12:42:48.066Z,8.10
2018-12-27T12:45:16.520Z,8.20
2018-12-27T12:47:44.938Z,8.10
2018-12-27T12:50:13.366Z,8.10
2018-12-27T12:52:41.790Z,8.00
2018-12-27T12:55:10.238Z,8.00
2018-12-27T12:57:38.681Z,7.80
2018-12-27T13:00:09.497Z,7.70
2018-12-27T13:02:37.987Z,7.60
2018-12-27T13:05:06.675Z,7.50
2018-12-27T13:07:35.748Z,7.40
2018-12-27T13:10:04.510Z,7.40
2018-12-27T13:12:32.937Z,7.40
2018-12-27T13:15:01.350Z,7.30
2018-12-27T13:17:29.782Z,7.30
2018-12-27T13:19:58.210Z,7.30
2018-12-27T13:22:27.460Z,7.20
2018-12-27T13:24:55.867Z,7.20
2018-12-27T13:27:24.290Z,7.30
2018-12-27T13:29:52.728Z,7.30
2018-12-27T13:32:21.173Z,7.30
2018-12-27T13:34:49.586Z,7.30
2018-12-27T13:37:18.043Z,7.20
2018-12-27T13:39:46.485Z,7.10
2018-12-27T13:42:14.897Z,7.00
2018-12-27T13:44:43.320Z,7.00
2018-12-27T13:47:11.743Z,7.00
2018-12-27T13:49:40.223Z,6.90
2018-12-27T13:52:08.704Z,6.80
2018-12-27T13:54:37.137Z,6.70
2018-12-27T13:57:05.559Z,6.70
2018-12-27T13:59:33.987Z,6.60
2018-12-27T14:02:02.485Z,6.50
2018-12-27T14:04:30.973Z,6.50
2018-12-27T14:06:59.398Z,6.40
2018-12-27T14:09:27.826Z,6.40
2018-12-27T14:11:56.251Z,6.50
2018-12-27T14:14:24.749Z,6.40
2018-12-27T14:16:53.157Z,6.40
2018-12-27T14:19:21.601Z,6.30
2018-12-27T14:21:50.006Z,6.20
2018-12-27T14:24:18.546Z,6.10
2018-12-27T14:26:46.981Z,6.10
2018-12-27T14:29:15.469Z,6.00
2018-12-27T14:31:43.935Z,6.00
2018-12-27T14:34:12.397Z,6.00
2018-12-27T14:36:40.825Z,5.90
2018-12-27T14:39:09.328Z,5.90
2018-12-27T14:41:37.763Z,5.80
2018-12-27T14:44:06.187Z,5.80
2018-12-27T14:46:34.635Z,5.70
2018-12-27T14:49:03.068Z,5.70
2018-12-27T14:51:31.668Z,5.80
2018-12-27T14:54:00.168Z,5.70
2018-12-27T14:56:28.668Z,5.60
2018-12-27T14:58:57.077Z,5.50
2018-12-27T15:01:25.632Z,5.40
2018-12-27T15:03:54.102Z,5.30
2018-12-27T15:06:22.578Z,5.20
2018-12-27T15:08:51.028Z,5.10
2018-12-27T15:11:19.550Z,5.00
2018-12-27T15:13:48.048Z,5.00
2018-12-27T15:16:16.477Z,4.90
2018-12-27T15:18:44.915Z,4.90
2018-12-27T15:21:13.351Z,4.80
2018-12-27T15:23:41.767Z,4.70
2018-12-27T15:26:10.227Z,4.60
2018-12-27T15:28:38.694Z,4.60
2018-12-27T15:31:07.124Z,4.60
2018-12-27T15:33:35.593Z,4.50
2018-12-27T15:36:04.014Z,4.40
2018-12-27T15:38:32.425Z,4.40
2018-12-27T15:41:00.882Z,4.30
2018-12-27T15:43:29.289Z,4.30
2018-12-27T15:45:57.756Z,4.30
2018-12-27T15:48:26.301Z,4.20
2018-12-27T15:50:54.853Z,4.20
2018-12-27T15:53:23.261Z,4.10
2018-12-27T15:55:51.702Z,4.10
2018-12-27T15:58:20.418Z,4.00
2018-12-27T16:00:48.851Z,3.90
2018-12-27T16:03:18.279Z,3.80
2018-12-27T16:05:46.795Z,3.70
2018-12-27T16:08:15.257Z,3.60
2018-12-27T16:10:43.778Z,3.70
2018-12-27T16:13:12.492Z,3.70
2018-12-27T16:15:40.973Z,3.70
2018-12-27T16:18:09.387Z,3.60
2018-12-27T16:20:37.961Z,3.50
2018-12-27T16:23:06.545Z,3.40
2018-12-27T16:25:34.966Z,3.40
2018-12-27T16:28:03.558Z,3.40
2018-12-27T16:30:32.037Z,3.40
2018-12-27T16:33:00.477Z,3.30
2018-12-27T16:35:29.106Z,3.30
2018-12-27T16:37:57.794Z,3.40
2018-12-27T16:40:26.330Z,3.40
2018-12-27T16:42:54.733Z,3.40
2018-12-27T16:45:23.371Z,3.40
2018-12-27T16:47:51.865Z,3.40
2018-12-27T16:50:21.173Z,3.50
2018-12-27T16:52:49.730Z,3.50
2018-12-27T16:55:19.929Z,3.60
2018-12-27T16:57:48.384Z,3.60
2018-12-27T17:00:16.824Z,3.60
2018-12-27T17:02:45.247Z,3.60
2018-12-27T17:05:13.690Z,3.50
2018-12-27T17:07:42.213Z,3.50
2018-12-27T17:10:10.767Z,3.40
2018-12-27T17:12:41.108Z,3.40
2018-12-27T17:15:09.579Z,3.40
2018-12-27T17:17:38.111Z,3.30
2018-12-27T17:20:06.589Z,3.40
2018-12-27T17:22:35.020Z,3.30
2018-12-27T17:25:03.465Z,3.30
2018-12-27T17:27:34.567Z,3.30
2018-12-27T17:30:02.994Z,3.40
2018-12-27T17:32:31.430Z,3.30
2018-12-27T17:34:59.850Z,3.30
2018-12-27T17:37:28.310Z,3.20
2018-12-27T17:39:56.835Z,3.20
2018-12-27T17:42:25.438Z,3.20
2018-12-27T17:44:53.870Z,3.00
2018-12-27T17:47:22.369Z,3.00
2018-12-27T17:49:50.911Z,2.90
2018-12-27T17:52:19.515Z,2.80
2018-12-27T17:54:48.206Z,2.70
2018-12-27T17:57:16.705Z,2.60
2018-12-27T17:59:45.129Z,2.60
2018-12-27T18:02:13.576Z,2.50
2018-12-27T18:04:42.070Z,2.50
2018-12-27T18:07:10.489Z,2.40
2018-12-27T18:09:38.977Z,2.30
2018-12-27T18:12:07.570Z,2.30
2018-12-27T18:14:36.058Z,2.20
2018-12-27T18:17:06.706Z,2.10
2018-12-27T18:19:35.436Z,2.00
2018-12-27T18:22:04.070Z,2.00
2018-12-27T18:24:32.924Z,2.00
2018-12-27T18:27:01.403Z,2.00
2018-12-27T18:29:29.816Z,1.90
2018-12-27T18:31:58.237Z,1.90
2018-12-27T18:34:26.672Z,1.80
2018-12-27T18:36:55.093Z,1.80
2018-12-27T18:39:24.415Z,1.80
2018-12-27T18:41:52.865Z,1.80
2018-12-27T18:44:21.405Z,1.80
2018-12-27T18:46:49.846Z,1.80
2018-12-27T18:49:20.759Z,1.80
2018-12-27T18:51:48.572Z,1.80
2018-12-27T18:54:17.073Z,1.80
2018-12-27T18:56:45.500Z,1.70
2018-12-27T18:59:13.931Z,1.70
2018-12-27T19:01:42.632Z,1.80
2018-12-27T19:04:12.092Z,1.80
2018-12-27T19:06:40.612Z,1.90
2018-12-27T19:09:09.477Z,2.00
2018-12-27T19:12:14.210Z,2.10
2018-12-27T19:14:42.694Z,2.20
2018-12-27T19:17:14.183Z,2.30
2018-12-27T19:19:42.597Z,2.40
2018-12-27T19:22:11.458Z,2.30
2018-12-27T19:24:40.013Z,2.30
2018-12-27T19:27:09.349Z,2.30
2018-12-27T19:29:37.791Z,2.20
2018-12-27T19:32:06.229Z,2.20
2018-12-27T19:34:34.731Z,2.20
2018-12-27T19:37:03.246Z,2.20
2018-12-27T19:39:31.803Z,2.20
2018-12-27T19:42:00.298Z,2.30
2018-12-27T19:44:28.898Z,2.20
2018-12-27T19:46:57.408Z,2.20
2018-12-27T19:49:25.882Z,2.00
2018-12-27T19:51:54.329Z,1.90
2018-12-27T19:54:22.821Z,1.80
2018-12-27T19:56:51.234Z,1.70
2018-12-27T19:59:19.726Z,1.60
2018-12-27T20:01:48.412Z,1.40
2018-12-27T20:04:17.082Z,1.30
2018-12-27T20:06:45.643Z,1.20
2018-12-27T20:09:14.209Z,1.30
2018-12-27T20:11:42.733Z,1.40
2018-12-27T20:14:11.190Z,1.40
2018-12-27T20:16:39.604Z,1.40
2018-12-27T20:19:08.021Z,1.50
2018-12-27T20:21:36.440Z,1.50
2018-12-27T20:24:05.045Z,1.50
2018-12-27T20:26:33.499Z,1.50
2018-12-27T20:29:02.009Z,1.40
2018-12-27T20:31:30.561Z,1.30
2018-12-27T20:33:59.947Z,1.30
2018-12-27T20:36:28.594Z,1.30
2018-12-27T20:38:56.997Z,1.30
2018-12-27T20:41:25.418Z,1.40
2018-12-27T20:43:53.889Z,1.40
2018-12-27T20:46:22.389Z,1.50
2018-12-27T20:48:50.808Z,1.50
2018-12-27T20:51:19.223Z,1.60
2018-12-27T20:53:47.663Z,1.70
2018-12-27T20:56:16.166Z,1.70
2018-12-27T20:58:44.682Z,1.60
2018-12-27T21:01:13.366Z,1.60
2018-12-27T21:03:41.850Z,1.50
2018-12-27T21:06:10.426Z,1.40
2018-12-27T21:08:38.842Z,1.40
2018-12-27T21:11:07.278Z,1.40
2018-12-27T21:13:35.808Z,1.30
2018-12-27T21:16:04.412Z,1.30
2018-12-27T21:18:32.875Z,1.30
2018-12-27T21:21:01.297Z,1.30
2018-12-27T21:23:29.717Z,1.20
2018-12-27T21:25:58.148Z,1.20
2018-12-27T21:28:26.558Z,1.10
2018-12-27T21:30:54.984Z,1.00
2018-12-27T21:33:23.519Z,1.10
2018-12-27T21:35:52.710Z,1.20
2018-12-27T21:38:21.617Z,1.20
2018-12-27T21:40:50.411Z,1.30
2018-12-27T21:43:18.902Z,1.30
2018-12-27T21:45:47.479Z,1.30
2018-12-27T21:48:15.938Z,1.30
2018-12-27T21:50:44.347Z,1.30
2018-12-27T21:53:12.777Z,1.30
2018-12-27T21:55:41.514Z,1.30
2018-12-27T21:58:10.006Z,1.30
2018-12-27T22:00:38.502Z,1.30
2018-12-27T22:03:06.936Z,1.30
2018-12-27T22:05:35.515Z,1.30
2018-12-27T22:08:04.025Z,1.20
2018-12-27T22:10:32.523Z,1.20
2018-12-27T22:13:01.075Z,1.20
2018-12-27T22:15:29.519Z,1.10
2018-12-27T22:17:57.934Z,1.20
2018-12-27T22:20:26.366Z,1.20
2018-12-27T22:22:54.928Z,1.20
2018-12-27T22:25:23.505Z,1.10
2018-12-27T22:27:51.979Z,1.00
2018-12-27T22:30:22.032Z,1.00
2018-12-27T22:32:50.603Z,1.00
2018-12-27T22:35:19.148Z,1.00
2018-12-27T22:37:47.623Z,0.90
2018-12-27T22:40:16.097Z,0.90
2018-12-27T22:42:44.518Z,0.90
2018-12-27T22:45:13.172Z,1.00
2018-12-27T22:47:41.642Z,1.10
2018-12-27T22:50:10.170Z,1.10
2018-12-27T22:52:38.776Z,1.00
2018-12-27T22:55:07.283Z,1.00
2018-12-27T22:57:35.823Z,1.00
2018-12-27T23:00:07.338Z,1.00
2018-12-27T23:02:35.762Z,0.90
2018-12-27T23:05:04.471Z,0.90
2018-12-27T23:07:32.891Z,0.80
2018-12-27T23:10:01.305Z,0.80
2018-12-27T23:12:29.824Z,0.60
2018-12-27T23:14:58.314Z,0.70
2018-12-27T23:17:27.630Z,0.70
2018-12-27T23:19:56.064Z,0.70
2018-12-27T23:22:24.491Z,0.60
2018-12-27T23:24:52.904Z,0.80
2018-12-27T23:27:21.335Z,0.90
2018-12-27T23:29:49.746Z,0.80
2018-12-27T23:32:18.167Z,0.80
2018-12-27T23:34:46.594Z,0.70
2018-12-27T23:37:15.035Z,0.70
2018-12-27T23:39:43.454Z,0.70
2018-12-27T23:42:11.903Z,0.70
2018-12-27T23:44:40.318Z,0.60
2018-12-27T23:47:08.740Z,0.60
2018-12-27T23:49:37.158Z,0.50
2018-12-27T23:52:05.589Z,0.50
2018-12-27T23:54:34.017Z,0.50
2018-12-27T23:57:02.435Z,0.50
2018-12-27T23:59:30.985Z,0.50
